createdAt,value
2022-09-23T00:00:45.230Z,2.45
2022-09-23T00:03:12.247Z,2.30
2022-09-23T00:05:38.682Z,2.20
2022-09-23T00:08:06.288Z,2.60
2022-09-23T00:10:32.928Z,2.13
2022-09-23T00:12:59.753Z,2.45
2022-09-23T00:15:26.837Z,2.40
2022-09-23T00:17:53.171Z,1.92
2022-09-23T00:20:19.675Z,2.17
2022-09-23T00:22:46.093Z,2.15
2022-09-23T00:25:12.749Z,1.88
2022-09-23T00:27:40.734Z,2.20
2022-09-23T00:30:08.930Z,2.28
2022-09-23T00:32:36.174Z,2.47
2022-09-23T00:35:02.716Z,2.20
2022-09-23T00:37:30.655Z,2.25
2022-09-23T00:39:57.122Z,2.22
2022-09-23T00:42:24.282Z,2.17
2022-09-23T00:44:55.958Z,2.22
2022-09-23T00:47:25.159Z,2.13
2022-09-23T00:50:14.181Z,2.72
2022-09-23T00:52:40.829Z,2.20
2022-09-23T00:55:12.698Z,1.92
2022-09-23T00:57:42.194Z,2.25
2022-09-23T01:00:09.322Z,2.30
2022-09-23T01:02:36.057Z,2.30
2022-09-23T01:05:04.637Z,2.08
2022-09-23T01:07:31.048Z,2.20
2022-09-23T01:09:59.808Z,2.25
2022-09-23T01:12:56.307Z,2.08
2022-09-23T01:15:33.343Z,2.20
2022-09-23T01:18:15.419Z,2.00
2022-09-23T01:21:13.616Z,2.40
2022-09-23T01:24:01.164Z,2.20
2022-09-23T01:26:48.816Z,2.15
2022-09-23T01:29:40.193Z,1.80
2022-09-23T01:32:14.222Z,2.53
2022-09-23T01:35:04.691Z,2.10
2022-09-23T01:37:47.867Z,2.45
2022-09-23T01:40:26.651Z,2.20
2022-09-23T01:43:02.278Z,2.50
2022-09-23T01:45:31.377Z,2.13
2022-09-23T01:48:04.296Z,2.08
2022-09-23T01:50:36.762Z,1.95
2022-09-23T01:53:10.768Z,2.00
2022-09-23T01:55:41.869Z,2.23
2022-09-23T01:58:21.210Z,2.50
2022-09-23T02:00:55.261Z,2.40
2022-09-23T02:03:27.176Z,1.85
2022-09-23T02:06:02.040Z,2.40
2022-09-23T02:11:02.485Z,1.90
2022-09-23T02:13:35.935Z,1.95
2022-09-23T02:16:08.878Z,2.08
2022-09-23T02:18:43.956Z,2.30
2022-09-23T02:21:10.321Z,2.13
2022-09-23T02:23:43.353Z,2.25
2022-09-23T02:26:27.836Z,2.13
2022-09-23T02:29:16.221Z,2.20
2022-09-23T02:32:01.155Z,2.00
2022-09-23T02:34:36.502Z,2.30
2022-09-23T02:37:19.610Z,2.15
2022-09-23T02:40:07.788Z,1.98
2022-09-23T02:43:14.002Z,2.20
2022-09-23T02:45:40.615Z,2.30
2022-09-23T02:48:16.219Z,2.50
2022-09-23T02:50:42.592Z,2.38
2022-09-23T02:53:09.020Z,2.50
2022-09-23T02:55:35.376Z,1.80
2022-09-23T02:58:03.532Z,1.85
2022-09-23T03:00:42.740Z,2.10
2022-09-23T03:03:18.190Z,2.20
2022-09-23T03:05:52.882Z,2.08
2022-09-23T03:08:41.548Z,2.40
2022-09-23T03:11:11.266Z,2.38
2022-09-23T03:13:52.136Z,2.00
2022-09-23T03:16:34.572Z,1.80
2022-09-23T03:19:13.101Z,2.33
2022-09-23T03:21:49.081Z,1.90
2022-09-23T03:24:16.253Z,1.90
2022-09-23T03:26:46.466Z,2.10
2022-09-23T03:29:15.051Z,1.90
2022-09-23T03:31:42.632Z,2.00
2022-09-23T03:34:16.342Z,2.28
2022-09-23T03:37:21.025Z,2.42
2022-09-23T03:40:07.671Z,1.90
2022-09-23T03:42:36.214Z,2.25
2022-09-23T03:45:06.190Z,2.42
2022-09-23T03:47:32.690Z,2.20
2022-09-23T03:49:59.035Z,2.38
2022-09-23T03:52:26.081Z,2.40
2022-09-23T03:54:53.305Z,2.50
2022-09-23T03:57:20.876Z,2.45
2022-09-23T03:59:47.890Z,2.60
2022-09-23T04:02:14.277Z,2.42
2022-09-23T04:04:40.617Z,2.20
2022-09-23T04:07:07.014Z,2.40
2022-09-23T04:09:34.312Z,2.25
2022-09-23T04:12:00.844Z,2.10
2022-09-23T04:14:27.199Z,2.20
2022-09-23T04:16:53.613Z,2.47
2022-09-23T04:19:20.136Z,2.88
2022-09-23T04:21:47.213Z,2.10
2022-09-23T04:24:14.553Z,2.22
2022-09-23T04:26:42.030Z,2.47
2022-09-23T04:29:08.732Z,1.95
2022-09-23T04:31:35.124Z,2.50
2022-09-23T04:34:01.614Z,2.30
2022-09-23T04:36:28.222Z,1.98
2022-09-23T04:38:54.554Z,2.55
2022-09-23T04:41:20.875Z,2.60
2022-09-23T04:43:47.327Z,2.83
2022-09-23T04:46:15.477Z,2.30
2022-09-23T04:48:42.217Z,2.70
2022-09-23T04:51:21.259Z,2.47
2022-09-23T04:53:49.599Z,2.45
2022-09-23T04:56:18.400Z,2.10
2022-09-23T04:58:45.305Z,2.53
2022-09-23T05:01:17.853Z,2.70
2022-09-23T05:03:45.731Z,2.42
2022-09-23T05:06:14.116Z,2.75
2022-09-23T05:08:47.283Z,2.60
2022-09-23T05:11:13.635Z,2.75
2022-09-23T05:13:40.036Z,2.88
2022-09-23T05:16:08.568Z,2.88
2022-09-23T05:18:35.809Z,2.70
2022-09-23T05:21:03.480Z,2.17
2022-09-23T05:23:30.489Z,2.70
2022-09-23T05:26:02.653Z,2.80
2022-09-23T05:28:30.165Z,3.10
2022-09-23T05:31:20.330Z,2.60
2022-09-23T05:33:53.075Z,2.72
2022-09-23T05:36:21.398Z,3.45
2022-09-23T05:38:49.129Z,2.97
2022-09-23T05:41:15.522Z,2.90
2022-09-23T05:43:41.900Z,2.78
2022-09-23T05:46:12.155Z,2.90
2022-09-23T05:48:39.572Z,3.03
2022-09-23T05:51:07.242Z,3.05
2022-09-23T05:53:33.612Z,2.90
2022-09-23T05:56:00.180Z,2.72
2022-09-23T05:58:26.618Z,3.10
2022-09-23T06:00:53.028Z,2.88
2022-09-23T06:03:20.564Z,2.47
2022-09-23T06:05:47.558Z,3.30
2022-09-23T06:08:14.299Z,2.80
2022-09-23T06:10:43.042Z,2.90
2022-09-23T06:13:09.913Z,2.97
2022-09-23T06:15:37.589Z,2.80
2022-09-23T06:18:04.965Z,2.90
2022-09-23T06:20:33.131Z,2.90
2022-09-23T06:23:10.114Z,2.63
2022-09-23T06:25:38.075Z,3.05
2022-09-23T06:28:04.538Z,3.20
2022-09-23T06:30:30.883Z,2.55
2022-09-23T06:32:57.888Z,2.83
2022-09-23T06:35:27.750Z,2.90
2022-09-23T06:37:54.941Z,2.88
2022-09-23T06:40:22.989Z,2.53
2022-09-23T06:42:57.782Z,2.75
2022-09-23T06:45:24.154Z,3.03
2022-09-23T06:47:57.449Z,2.35
2022-09-23T06:50:25.739Z,2.30
2022-09-23T06:52:53.575Z,2.90
2022-09-23T06:55:20.085Z,2.85
2022-09-23T06:57:46.395Z,2.80
2022-09-23T07:00:13.358Z,2.70
2022-09-23T07:02:41.059Z,2.90
2022-09-23T07:05:08.261Z,2.97
2022-09-23T07:07:34.827Z,2.45
2022-09-23T07:10:01.177Z,3.15
2022-09-23T07:12:27.511Z,2.58
2022-09-23T07:14:53.943Z,2.50
2022-09-23T07:17:20.260Z,2.50
2022-09-23T07:19:46.607Z,2.47
2022-09-23T07:22:12.919Z,2.47
2022-09-23T07:24:39.282Z,2.35
2022-09-23T07:27:05.702Z,2.42
2022-09-23T07:29:43.692Z,3.00
2022-09-23T07:32:14.261Z,2.70
2022-09-23T07:34:40.969Z,2.63
2022-09-23T07:37:07.306Z,2.85
2022-09-23T07:39:33.710Z,2.47
2022-09-23T07:42:00.080Z,2.53
2022-09-23T07:44:26.398Z,2.22
2022-09-23T07:46:52.787Z,2.70
2022-09-23T07:49:19.172Z,2.40
2022-09-23T07:51:45.509Z,2.65
2022-09-23T07:54:14.605Z,2.70
2022-09-23T07:56:42.337Z,2.58
2022-09-23T07:59:12.542Z,2.53
2022-09-23T08:01:41.447Z,2.15
2022-09-23T08:04:11.707Z,2.58
2022-09-23T08:06:42.920Z,2.70
2022-09-23T08:09:09.799Z,3.00
2022-09-23T08:11:36.651Z,2.40
2022-09-23T08:14:02.963Z,2.65
2022-09-23T08:16:29.347Z,2.42
2022-09-23T08:18:55.740Z,2.90
2022-09-23T08:21:22.929Z,2.28
2022-09-23T08:23:49.424Z,2.53
2022-09-23T08:26:20.744Z,2.90
2022-09-23T08:28:48.260Z,2.33
2022-09-23T08:31:14.652Z,2.75
2022-09-23T08:33:41.404Z,2.60
2022-09-23T08:36:07.951Z,2.67
2022-09-23T08:38:34.251Z,2.30
2022-09-23T08:41:25.215Z,2.60
2022-09-23T08:43:56.340Z,3.03
2022-09-23T08:46:28.011Z,2.97
2022-09-23T08:48:55.641Z,2.40
2022-09-23T08:51:39.001Z,3.70
2022-09-23T08:54:05.563Z,2.28
2022-09-23T08:56:44.483Z,2.40
2022-09-23T08:59:13.530Z,2.38
2022-09-23T09:01:49.130Z,2.90
2022-09-23T09:04:27.065Z,2.33
2022-09-23T09:07:34.815Z,2.50
2022-09-23T09:10:04.765Z,2.60
2022-09-23T09:12:40.187Z,2.40
2022-09-23T09:15:24.787Z,2.30
2022-09-23T09:17:56.954Z,2.97
2022-09-23T09:20:39.429Z,2.40
2022-09-23T09:23:31.477Z,2.42
2022-09-23T09:26:01.477Z,2.58
2022-09-23T09:28:38.705Z,2.65
2022-09-23T09:31:23.884Z,2.63
2022-09-23T09:36:32.352Z,2.20
2022-09-23T09:38:58.966Z,2.58
2022-09-23T09:41:27.914Z,2.80
2022-09-23T09:43:54.502Z,2.83
2022-09-23T09:46:36.312Z,2.70
2022-09-23T09:49:11.306Z,2.88
2022-09-23T09:51:37.610Z,2.90
2022-09-23T09:54:23.650Z,2.65
2022-09-23T09:56:51.066Z,2.58
2022-09-23T09:59:25.317Z,2.83
2022-09-23T10:02:12.779Z,2.70
2022-09-23T10:04:39.193Z,2.40
2022-09-23T10:07:13.618Z,2.53
2022-09-23T10:09:47.755Z,2.42
2022-09-23T10:12:22.657Z,2.40
2022-09-23T10:17:22.578Z,2.33
2022-09-23T10:19:54.308Z,2.47
2022-09-23T10:22:25.095Z,2.10
2022-09-23T10:24:54.362Z,2.10
2022-09-23T10:27:30.062Z,1.80
2022-09-23T10:29:58.740Z,1.92
2022-09-23T10:32:35.440Z,1.90
2022-09-23T10:35:07.763Z,1.90
2022-09-23T10:37:45.005Z,2.00
2022-09-23T10:40:43.090Z,1.50
2022-09-23T10:43:34.414Z,1.92
2022-09-23T10:46:05.182Z,1.80
2022-09-23T10:48:56.072Z,1.90
2022-09-23T10:51:36.763Z,2.00
2022-09-23T10:54:32.014Z,1.80
2022-09-23T10:57:04.420Z,2.08
2022-09-23T10:59:53.548Z,1.92
2022-09-23T11:02:50.526Z,1.50
2022-09-23T11:05:38.064Z,1.88
2022-09-23T11:08:20.023Z,1.65
2022-09-23T11:11:01.587Z,1.60
2022-09-23T11:13:46.056Z,1.95
2022-09-23T11:16:18.458Z,1.85
2022-09-23T11:18:52.622Z,2.05
2022-09-23T11:21:31.444Z,1.70
2022-09-23T11:24:11.409Z,1.80
2022-09-23T11:27:19.087Z,1.80
2022-09-23T11:30:03.493Z,2.30
2022-09-23T11:32:32.676Z,1.70
2022-09-23T11:35:12.779Z,1.88
2022-09-23T11:37:48.022Z,1.70
2022-09-23T11:40:30.828Z,1.70
2022-09-23T11:43:01.782Z,1.80
2022-09-23T11:45:33.728Z,1.58
2022-09-23T11:48:08.838Z,1.95
2022-09-23T11:50:44.675Z,1.30
2022-09-23T11:53:58.401Z,1.80
2022-09-23T11:56:46.754Z,1.83
2022-09-23T11:59:14.717Z,2.10
2022-09-23T12:01:53.038Z,2.00
2022-09-23T12:04:29.056Z,1.80
2022-09-23T12:07:08.030Z,1.55
2022-09-23T12:09:58.066Z,1.70
2022-09-23T12:12:34.493Z,2.00
2022-09-23T12:15:37.794Z,1.83
2022-09-23T12:18:25.606Z,1.60
2022-09-23T12:20:58.784Z,1.73
2022-09-23T12:23:52.328Z,1.58
2022-09-23T12:26:23.477Z,2.00
2022-09-23T12:28:54.372Z,1.55
2022-09-23T12:31:24.884Z,1.73
2022-09-23T12:33:53.737Z,1.73
2022-09-23T12:36:29.403Z,1.38
2022-09-23T12:39:17.679Z,1.75
2022-09-23T12:41:47.654Z,1.80
2022-09-23T12:44:26.157Z,1.60
2022-09-23T12:47:14.986Z,1.77
2022-09-23T12:49:42.657Z,1.42
2022-09-23T12:52:11.667Z,1.58
2022-09-23T12:54:40.123Z,1.42
2022-09-23T12:57:11.196Z,1.88
2022-09-23T13:00:06.783Z,1.48
2022-09-23T13:02:39.937Z,1.55
2022-09-23T13:05:24.863Z,1.35
2022-09-23T13:07:51.297Z,1.38
2022-09-23T13:10:54.119Z,1.80
2022-09-23T13:13:41.634Z,1.50
2022-09-23T13:16:25.281Z,2.67
2022-09-23T13:18:57.066Z,1.65
2022-09-23T13:21:44.955Z,1.58
2022-09-23T13:24:20.540Z,1.55
2022-09-23T13:26:49.847Z,1.50
2022-09-23T13:29:25.445Z,1.75
2022-09-23T13:31:52.344Z,1.95
2022-09-23T13:34:22.899Z,1.60
2022-09-23T13:36:49.203Z,1.63
2022-09-23T13:39:27.019Z,1.50
2022-09-23T13:41:59.610Z,1.35
2022-09-23T13:44:28.005Z,1.30
2022-09-23T13:46:58.624Z,1.45
2022-09-23T13:49:26.727Z,1.38
2022-09-23T13:51:53.338Z,1.75
2022-09-23T13:54:47.107Z,1.50
2022-09-23T13:57:31.334Z,1.70
2022-09-23T14:00:02.865Z,2.03
2022-09-23T14:02:29.165Z,1.70
2022-09-23T14:04:58.570Z,1.23
2022-09-23T14:07:25.636Z,1.58
2022-09-23T14:09:55.114Z,1.67
2022-09-23T14:12:21.661Z,1.60
2022-09-23T14:14:50.690Z,1.40
2022-09-23T14:17:19.859Z,1.83
2022-09-23T14:19:47.080Z,1.50
2022-09-23T14:22:27.877Z,1.73
2022-09-23T14:24:55.474Z,1.60
2022-09-23T14:27:32.279Z,1.73
2022-09-23T14:29:59.264Z,1.20
2022-09-23T14:32:26.710Z,1.55
2022-09-23T14:35:01.914Z,1.20
2022-09-23T14:37:31.207Z,1.38
2022-09-23T14:39:57.986Z,1.90
2022-09-23T14:42:24.332Z,1.67
2022-09-23T14:44:50.643Z,1.60
2022-09-23T14:47:17.114Z,1.40
2022-09-23T14:49:48.685Z,1.42
2022-09-23T14:52:15.020Z,1.75
2022-09-23T14:54:46.138Z,1.40
2022-09-23T14:57:29.848Z,1.35
2022-09-23T15:00:18.794Z,1.50
2022-09-23T15:02:58.583Z,1.38
2022-09-23T15:05:45.611Z,1.20
2022-09-23T15:08:21.731Z,1.10
2022-09-23T15:10:48.701Z,1.75
2022-09-23T15:13:20.925Z,1.30
2022-09-23T15:15:47.530Z,1.92
2022-09-23T15:18:28.881Z,1.80
2022-09-23T15:21:01.376Z,1.50
2022-09-23T15:23:47.089Z,1.88
2022-09-23T15:26:20.286Z,1.55
2022-09-23T15:28:48.105Z,1.55
2022-09-23T15:31:19.310Z,1.60
2022-09-23T15:33:46.549Z,1.40
2022-09-23T15:36:25.245Z,1.50
2022-09-23T15:38:52.207Z,1.20
2022-09-23T15:41:18.718Z,2.03
2022-09-23T15:43:45.178Z,1.65
2022-09-23T15:46:20.449Z,1.38
2022-09-23T15:48:59.206Z,1.20
2022-09-23T15:51:26.931Z,1.52
2022-09-23T15:53:53.851Z,1.52
2022-09-23T15:56:20.609Z,1.65
2022-09-23T15:58:47.134Z,1.40
2022-09-23T16:01:25.386Z,1.20
2022-09-23T16:03:51.709Z,1.50
2022-09-23T16:06:19.237Z,1.38
2022-09-23T16:08:46.018Z,1.50
2022-09-23T16:11:18.888Z,1.63
2022-09-23T16:13:45.704Z,1.52
2022-09-23T16:16:12.029Z,1.40
2022-09-23T16:18:38.382Z,1.60
2022-09-23T16:21:05.188Z,1.25
2022-09-23T16:23:37.005Z,1.30
2022-09-23T16:26:24.391Z,1.10
2022-09-23T16:28:54.327Z,1.40
2022-09-23T16:31:22.379Z,1.20
2022-09-23T16:33:49.078Z,1.33
2022-09-23T16:36:24.673Z,1.20
2022-09-23T16:38:51.024Z,1.40
2022-09-23T16:41:17.354Z,1.30
2022-09-23T16:43:43.657Z,1.23
2022-09-23T16:46:12.402Z,1.30
2022-09-23T16:48:39.769Z,1.13
2022-09-23T16:51:14.447Z,1.20
2022-09-23T16:53:41.237Z,1.13
2022-09-23T16:56:09.353Z,1.10
2022-09-23T16:58:36.891Z,1.10
2022-09-23T17:01:04.051Z,0.93
2022-09-23T17:03:30.456Z,1.00
2022-09-23T17:05:57.084Z,1.10
2022-09-23T17:08:23.400Z,1.30
2022-09-23T17:10:56.854Z,1.20
2022-09-23T17:13:23.140Z,1.20
2022-09-23T17:15:49.461Z,1.08
2022-09-23T17:18:19.399Z,1.17
2022-09-23T17:21:06.173Z,1.40
2022-09-23T17:23:34.243Z,1.17
2022-09-23T17:26:01.960Z,1.38
2022-09-23T17:28:29.008Z,1.50
2022-09-23T17:31:00.070Z,1.67
2022-09-23T17:33:27.870Z,2.10
2022-09-23T17:35:54.431Z,1.95
2022-09-23T17:38:26.686Z,2.30
2022-09-23T17:40:56.848Z,2.40
2022-09-23T17:43:23.188Z,2.17
2022-09-23T17:45:49.525Z,2.00
2022-09-23T17:48:16.041Z,1.60
2022-09-23T17:50:42.526Z,1.80
2022-09-23T17:53:08.842Z,1.90
2022-09-23T17:55:35.135Z,1.50
2022-09-23T17:58:01.424Z,1.50
2022-09-23T18:00:27.758Z,1.85
2022-09-23T18:02:54.086Z,1.88
2022-09-23T18:05:21.775Z,1.90
2022-09-23T18:07:48.076Z,1.88
2022-09-23T18:10:14.374Z,1.70
2022-09-23T18:12:40.679Z,1.70
2022-09-23T18:15:07.273Z,1.80
2022-09-23T18:17:33.575Z,1.83
2022-09-23T18:20:00.171Z,2.00
2022-09-23T18:22:26.486Z,2.08
2022-09-23T18:24:52.795Z,2.28
2022-09-23T18:27:19.094Z,2.20
2022-09-23T18:29:45.379Z,2.00
2022-09-23T18:32:14.241Z,2.03
2022-09-23T18:34:40.837Z,2.40
2022-09-23T18:37:15.343Z,1.90
2022-09-23T18:39:42.482Z,2.47
2022-09-23T18:42:09.059Z,2.22
2022-09-23T18:44:35.366Z,1.95
2022-09-23T18:47:01.667Z,2.10
2022-09-23T18:49:27.948Z,2.10
2022-09-23T18:51:58.050Z,2.58
2022-09-23T18:54:26.988Z,2.53
2022-09-23T18:56:53.609Z,3.10
2022-09-23T18:59:21.890Z,2.67
2022-09-23T19:01:49.473Z,2.92
2022-09-23T19:04:20.389Z,3.33
2022-09-23T19:06:47.535Z,2.95
2022-09-23T19:09:17.962Z,3.42
2022-09-23T19:11:44.508Z,4.38
2022-09-23T19:14:11.777Z,3.60
2022-09-23T19:16:41.066Z,3.40
2022-09-23T19:19:08.107Z,3.80
2022-09-23T19:21:34.819Z,3.88
2022-09-23T19:24:04.969Z,3.75
2022-09-23T19:26:34.730Z,3.75
2022-09-23T19:29:01.814Z,5.05
2022-09-23T19:31:34.469Z,6.20
2022-09-23T19:34:03.849Z,6.10
2022-09-23T19:36:33.050Z,7.00
2022-09-23T19:39:06.607Z,7.45
2022-09-23T19:41:33.208Z,6.38
2022-09-23T19:44:00.703Z,5.45
2022-09-23T19:46:27.112Z,5.90
2022-09-23T19:48:53.433Z,6.00
2022-09-23T19:51:19.720Z,6.35
2022-09-23T19:53:46.088Z,6.60
2022-09-23T19:56:13.548Z,5.70
2022-09-23T19:58:39.872Z,5.40
2022-09-23T20:01:07.068Z,5.82
2022-09-23T20:03:33.508Z,5.43
2022-09-23T20:05:59.833Z,5.45
2022-09-23T20:08:26.282Z,6.35
2022-09-23T20:10:53.012Z,6.20
2022-09-23T20:13:19.775Z,5.90
2022-09-23T20:15:46.695Z,6.50
2022-09-23T20:18:13.154Z,5.97
2022-09-23T20:20:39.800Z,6.10
2022-09-23T20:23:06.228Z,6.43
2022-09-23T20:25:32.778Z,6.68
2022-09-23T20:27:59.081Z,6.80
2022-09-23T20:30:25.411Z,6.47
2022-09-23T20:32:51.713Z,5.95
2022-09-23T20:35:18.080Z,6.40
2022-09-23T20:37:44.401Z,6.20
2022-09-23T20:40:10.806Z,6.55
2022-09-23T20:42:37.205Z,7.03
2022-09-23T20:45:03.766Z,6.88
2022-09-23T20:47:30.098Z,6.78
2022-09-23T20:49:56.429Z,6.32
2022-09-23T20:52:22.777Z,6.72
2022-09-23T20:54:49.100Z,7.43
2022-09-23T20:57:15.477Z,6.80
2022-09-23T20:59:41.801Z,6.88
2022-09-23T21:02:09.837Z,6.88
2022-09-23T21:04:36.320Z,6.57
2022-09-23T21:07:02.625Z,7.20
2022-09-23T21:09:29.461Z,6.57
2022-09-23T21:11:55.919Z,6.18
2022-09-23T21:14:22.970Z,5.80
2022-09-23T21:16:49.976Z,5.72
2022-09-23T21:19:17.396Z,5.43
2022-09-23T21:21:43.765Z,5.38
2022-09-23T21:24:45.331Z,6.57
2022-09-23T21:26:56.754Z,5.53
2022-09-23T21:29:23.096Z,6.07
2022-09-23T21:31:49.624Z,5.50
2022-09-23T21:34:16.166Z,6.53
2022-09-23T21:36:44.309Z,6.43
2022-09-23T21:39:11.745Z,6.50
2022-09-23T21:41:39.001Z,7.10
2022-09-23T21:44:06.142Z,6.78
2022-09-23T21:46:32.820Z,7.22
2022-09-23T21:48:59.839Z,7.30
2022-09-23T21:51:31.744Z,6.53
2022-09-23T21:53:58.462Z,7.55
2022-09-23T21:56:30.537Z,6.95
2022-09-23T21:58:58.216Z,6.30
2022-09-23T22:01:27.146Z,6.15
2022-09-23T22:03:59.362Z,6.32
2022-09-23T22:06:27.406Z,6.70
2022-09-23T22:08:56.662Z,6.65
2022-09-23T22:11:23.950Z,6.20
2022-09-23T22:13:50.254Z,7.38
2022-09-23T22:16:16.669Z,7.82
2022-09-23T22:18:43.131Z,7.78
2022-09-23T22:21:09.479Z,7.85
2022-09-23T22:23:35.789Z,7.97
2022-09-23T22:26:03.416Z,8.13
2022-09-23T22:28:32.715Z,8.65
2022-09-23T22:30:59.062Z,8.90
2022-09-23T22:33:25.435Z,7.63
2022-09-23T22:35:51.794Z,7.68
2022-09-23T22:38:18.313Z,8.25
2022-09-23T22:40:44.735Z,8.45
2022-09-23T22:43:11.097Z,7.88
2022-09-23T22:45:37.463Z,8.30
2022-09-23T22:48:05.283Z,8.23
2022-09-23T22:50:31.601Z,8.23
2022-09-23T22:52:57.979Z,8.38
2022-09-23T22:55:24.320Z,8.25
2022-09-23T22:57:50.957Z,8.70
2022-09-23T23:00:17.288Z,9.95
2022-09-23T23:02:43.733Z,10.13
2022-09-23T23:05:10.541Z,9.38
2022-09-23T23:07:36.874Z,9.23
2022-09-23T23:10:03.545Z,9.73
2022-09-23T23:12:29.933Z,9.88
2022-09-23T23:14:56.259Z,9.40
2022-09-23T23:17:22.578Z,9.90
2022-09-23T23:19:48.944Z,12.48
2022-09-23T23:22:15.266Z,12.35
2022-09-23T23:24:41.648Z,10.77
2022-09-23T23:27:08.024Z,9.40
2022-09-23T23:29:34.362Z,8.57
2022-09-23T23:32:00.824Z,8.40
2022-09-23T23:34:27.172Z,9.18
2022-09-23T23:36:53.976Z,7.47
2022-09-23T23:39:22.499Z,8.45
2022-09-23T23:41:51.988Z,8.20
2022-09-23T23:44:18.373Z,8.80
2022-09-23T23:46:44.700Z,8.95
2022-09-23T23:49:11.145Z,8.90
2022-09-23T23:51:37.489Z,8.45
2022-09-23T23:54:04.086Z,8.40
2022-09-23T23:56:30.480Z,8.80
2022-09-23T23:58:58.881Z,8.32
